createdAt,value
2023-02-17T00:01:31.887Z,101474.00
2023-02-17T00:03:59.748Z,101478.00
2023-02-17T00:06:30.661Z,101474.00
2023-02-17T00:08:58.192Z,101469.00
2023-02-17T00:11:25.933Z,101461.00
2023-02-17T00:13:55.202Z,101466.00
2023-02-17T00:16:26.446Z,101453.00
2023-02-17T00:18:57.015Z,101445.00
2023-02-17T00:21:28.633Z,101432.00
2023-02-17T00:23:57.791Z,101440.00
2023-02-17T00:26:24.543Z,101436.00
2023-02-17T00:28:51.310Z,101427.00
2023-02-17T00:31:21.669Z,101430.00
2023-02-17T00:33:49.085Z,101430.00
2023-02-17T00:36:19.873Z,101421.00
2023-02-17T00:38:48.326Z,101425.00
2023-02-17T00:41:16.561Z,101434.00
2023-02-17T00:43:43.391Z,101428.00
2023-02-17T00:46:10.372Z,101425.00
2023-02-17T00:48:37.265Z,101425.00
2023-02-17T00:51:04.267Z,101421.00
2023-02-17T00:53:31.021Z,101408.00
2023-02-17T00:55:57.754Z,101413.00
2023-02-17T00:58:25.298Z,101406.00
2023-02-17T01:00:52.316Z,101396.00
2023-02-17T01:03:19.403Z,101392.00
2023-02-17T01:05:49.343Z,101391.00
2023-02-17T01:08:17.776Z,101388.00
2023-02-17T01:10:47.224Z,101378.00
2023-02-17T01:13:16.771Z,101376.00
2023-02-17T01:15:53.382Z,101367.00
2023-02-17T01:18:23.813Z,101368.00
2023-02-17T01:20:51.057Z,101365.00
2023-02-17T01:23:18.152Z,101362.00
2023-02-17T01:25:47.473Z,101358.00
2023-02-17T01:28:21.335Z,101361.00
2023-02-17T01:30:49.120Z,101363.00
2023-02-17T01:33:15.916Z,101350.00
2023-02-17T01:35:42.674Z,101346.00
2023-02-17T01:38:09.495Z,101339.00
2023-02-17T01:40:36.419Z,101338.00
2023-02-17T01:43:03.689Z,101340.00
2023-02-17T01:45:36.079Z,101335.00
2023-02-17T01:48:30.720Z,101330.00
2023-02-17T01:51:08.919Z,101326.00
2023-02-17T01:53:44.151Z,101329.00
2023-02-17T01:56:14.767Z,101328.00
2023-02-17T01:58:47.027Z,101325.00
2023-02-17T02:01:13.810Z,101317.00
2023-02-17T02:03:40.957Z,101314.00
2023-02-17T02:06:16.706Z,101316.00
2023-02-17T02:09:18.794Z,101313.00
2023-02-17T02:11:50.830Z,101310.00
2023-02-17T02:14:19.959Z,101306.00
2023-02-17T02:17:31.582Z,101306.00
2023-02-17T02:20:08.632Z,101298.00
2023-02-17T02:23:21.220Z,101294.00
2023-02-17T02:26:45.890Z,101278.00
2023-02-17T02:29:47.470Z,101275.00
2023-02-17T02:33:17.063Z,101264.00
2023-02-17T02:36:05.333Z,101245.00
2023-02-17T02:39:01.501Z,101245.00
2023-02-17T02:41:37.217Z,101246.00
2023-02-17T02:44:07.781Z,101244.00
2023-02-17T02:46:34.576Z,101243.00
2023-02-17T02:49:03.377Z,101240.00
2023-02-17T02:51:43.051Z,101231.00
2023-02-17T02:54:56.118Z,101238.00
2023-02-17T02:57:43.985Z,101225.00
2023-02-17T03:00:42.780Z,101218.00
2023-02-17T03:03:37.471Z,101227.00
2023-02-17T03:06:26.286Z,101216.00
2023-02-17T03:09:06.294Z,101211.00
2023-02-17T03:11:33.117Z,101193.00
2023-02-17T03:14:06.188Z,101198.00
2023-02-17T03:16:35.195Z,101192.00
2023-02-17T03:19:02.198Z,101194.00
2023-02-17T03:21:48.260Z,101184.00
2023-02-17T03:24:15.538Z,101180.00
2023-02-17T03:26:42.253Z,101184.00
2023-02-17T03:29:09.158Z,101188.00
2023-02-17T03:31:36.507Z,101192.00
2023-02-17T03:34:03.519Z,101193.00
2023-02-17T03:36:30.521Z,101184.00
2023-02-17T03:38:57.923Z,101191.00
2023-02-17T03:41:25.891Z,101196.00
2023-02-17T03:43:52.863Z,101196.00
2023-02-17T03:46:20.185Z,101180.00
2023-02-17T03:48:46.930Z,101175.00
2023-02-17T03:51:24.328Z,101186.00
2023-02-17T03:53:51.844Z,101182.00
2023-02-17T03:56:19.375Z,101179.00
2023-02-17T03:58:46.206Z,101171.00
2023-02-17T04:01:14.673Z,101181.00
2023-02-17T04:03:42.115Z,101172.00
2023-02-17T04:06:10.407Z,101166.00
2023-02-17T04:08:39.036Z,101166.00
2023-02-17T04:11:08.450Z,101156.00
2023-02-17T04:13:36.225Z,101150.00
2023-02-17T04:16:07.270Z,101161.00
2023-02-17T04:18:35.080Z,101150.00
2023-02-17T04:21:02.267Z,101146.00
2023-02-17T04:23:29.401Z,101152.00
2023-02-17T04:25:56.173Z,101151.00
2023-02-17T04:28:23.316Z,101154.00
2023-02-17T04:30:51.708Z,101150.00
2023-02-17T04:33:19.029Z,101146.00
2023-02-17T04:35:47.252Z,101140.00
2023-02-17T04:38:14.022Z,101131.00
2023-02-17T04:40:40.842Z,101133.00
2023-02-17T04:43:08.552Z,101125.00
2023-02-17T04:45:37.590Z,101135.00
2023-02-17T04:48:04.623Z,101148.00
2023-02-17T04:50:31.374Z,101154.00
2023-02-17T04:52:58.180Z,101135.00
2023-02-17T04:55:24.918Z,101139.00
2023-02-17T04:57:51.684Z,101129.00
2023-02-17T05:00:18.837Z,101115.00
2023-02-17T05:02:45.584Z,101118.00
2023-02-17T05:05:15.471Z,101103.00
2023-02-17T05:07:43.013Z,101117.00
2023-02-17T05:10:10.147Z,101119.00
2023-02-17T05:12:37.746Z,101116.00
2023-02-17T05:15:05.399Z,101113.00
2023-02-17T05:17:32.458Z,101106.00
2023-02-17T05:19:59.274Z,101100.00
2023-02-17T05:22:26.330Z,101099.00
2023-02-17T05:24:53.592Z,101106.00
2023-02-17T05:27:20.475Z,101085.00
2023-02-17T05:29:47.420Z,101096.00
2023-02-17T05:32:14.179Z,101101.00
2023-02-17T05:34:41.015Z,101086.00
2023-02-17T05:37:07.933Z,101080.00
2023-02-17T05:39:34.956Z,101092.00
2023-02-17T05:42:01.807Z,101082.00
2023-02-17T05:44:28.569Z,101096.00
2023-02-17T05:46:55.378Z,101082.00
2023-02-17T05:49:22.115Z,101085.00
2023-02-17T05:51:49.336Z,101083.00
2023-02-17T05:54:16.091Z,101086.00
2023-02-17T05:56:42.835Z,101087.00
2023-02-17T05:59:09.620Z,101086.00
2023-02-17T06:01:37.407Z,101086.00
2023-02-17T06:04:05.249Z,101080.00
2023-02-17T06:06:31.977Z,101082.00
2023-02-17T06:08:58.842Z,101074.00
2023-02-17T06:11:26.280Z,101071.00
2023-02-17T06:13:53.071Z,101071.00
2023-02-17T06:16:20.032Z,101056.00
2023-02-17T06:18:46.872Z,101057.00
2023-02-17T06:21:13.764Z,101052.00
2023-02-17T06:23:40.773Z,101053.00
2023-02-17T06:26:07.942Z,101041.00
2023-02-17T06:28:35.229Z,101037.00
2023-02-17T06:31:02.520Z,101041.00
2023-02-17T06:33:29.345Z,101042.00
2023-02-17T06:35:56.118Z,101048.00
2023-02-17T06:38:23.199Z,101047.00
2023-02-17T06:40:49.970Z,101055.00
2023-02-17T06:43:16.747Z,101038.00
2023-02-17T06:45:43.768Z,101041.00
2023-02-17T06:48:10.814Z,101040.00
2023-02-17T06:50:38.235Z,101051.00
2023-02-17T06:53:05.339Z,101031.00
2023-02-17T06:55:32.364Z,101039.00
2023-02-17T06:57:59.078Z,101025.00
2023-02-17T07:00:27.077Z,101036.00
2023-02-17T07:02:53.919Z,101016.00
2023-02-17T07:05:20.755Z,101029.00
2023-02-17T07:07:47.469Z,101028.00
2023-02-17T07:10:14.232Z,101014.00
2023-02-17T07:12:40.965Z,101011.00
2023-02-17T07:15:11.838Z,101011.00
2023-02-17T07:17:38.932Z,101018.00
2023-02-17T07:20:06.890Z,101016.00
2023-02-17T07:22:33.586Z,101013.00
2023-02-17T07:25:00.572Z,101026.00
2023-02-17T07:27:27.336Z,101011.00
2023-02-17T07:29:54.082Z,101004.00
2023-02-17T07:32:20.785Z,101011.00
2023-02-17T07:34:47.905Z,101008.00
2023-02-17T07:37:14.775Z,101008.00
2023-02-17T07:39:41.565Z,101012.00
2023-02-17T07:42:09.802Z,101011.00
2023-02-17T07:44:36.520Z,101004.00
2023-02-17T07:47:03.276Z,100997.00
2023-02-17T07:49:30.053Z,100993.00
2023-02-17T07:51:56.799Z,100990.00
2023-02-17T07:54:23.757Z,100989.00
2023-02-17T07:56:50.509Z,100989.00
2023-02-17T07:59:17.233Z,100982.00
2023-02-17T08:01:44.040Z,100978.00
2023-02-17T08:04:10.836Z,100975.00
2023-02-17T08:06:40.120Z,100978.00
2023-02-17T08:09:25.517Z,100976.00
2023-02-17T08:12:10.870Z,100988.00
2023-02-17T08:14:38.623Z,100983.00
2023-02-17T08:17:05.965Z,100989.00
2023-02-17T08:19:46.910Z,100988.00
2023-02-17T08:22:16.712Z,100986.00
2023-02-17T08:24:43.634Z,100979.00
2023-02-17T08:27:10.408Z,100988.00
2023-02-17T08:29:37.207Z,100974.00
2023-02-17T08:32:04.186Z,100978.00
2023-02-17T08:34:34.088Z,100967.00
2023-02-17T08:37:02.057Z,100968.00
2023-02-17T08:39:29.254Z,100971.00
2023-02-17T08:41:56.401Z,100971.00
2023-02-17T08:44:23.649Z,100969.00
2023-02-17T08:46:51.791Z,100965.00
2023-02-17T08:49:23.384Z,100969.00
2023-02-17T08:51:51.620Z,100974.00
2023-02-17T08:54:18.925Z,100958.00
2023-02-17T08:56:45.898Z,100958.00
2023-02-17T08:59:13.706Z,100971.00
2023-02-17T09:01:41.687Z,100950.00
2023-02-17T09:04:11.934Z,100944.00
2023-02-17T09:06:50.504Z,100933.00
2023-02-17T09:09:22.575Z,100924.00
2023-02-17T09:11:49.740Z,100926.00
2023-02-17T09:14:16.606Z,100923.00
2023-02-17T09:16:43.525Z,100915.00
2023-02-17T09:19:10.320Z,100907.00
2023-02-17T09:21:37.241Z,100906.00
2023-02-17T09:24:04.361Z,100898.00
2023-02-17T09:26:31.114Z,100891.00
2023-02-17T09:28:58.599Z,100888.00
2023-02-17T09:31:27.291Z,100883.00
2023-02-17T09:33:55.272Z,100884.00
2023-02-17T09:36:26.920Z,100881.00
2023-02-17T09:38:54.612Z,100871.00
2023-02-17T09:41:40.981Z,100875.00
2023-02-17T09:44:40.884Z,100869.00
2023-02-17T09:47:32.406Z,100861.00
2023-02-17T09:50:14.043Z,100862.00
2023-02-17T09:52:53.509Z,100852.00
2023-02-17T09:55:33.261Z,100854.00
2023-02-17T09:58:50.369Z,100858.00
2023-02-17T10:01:25.790Z,100839.00
2023-02-17T10:04:00.952Z,100847.00
2023-02-17T10:06:35.606Z,100828.00
2023-02-17T10:09:22.845Z,100838.00
2023-02-17T10:12:14.006Z,100824.00
2023-02-17T10:14:53.975Z,100821.00
2023-02-17T10:17:43.972Z,100824.00
2023-02-17T10:20:28.367Z,100820.00
2023-02-17T10:23:26.495Z,100818.00
2023-02-17T10:27:08.349Z,100803.00
2023-02-17T10:30:03.981Z,100800.00
2023-02-17T10:32:44.459Z,100799.00
2023-02-17T10:35:34.020Z,100793.00
2023-02-17T10:38:31.570Z,100774.00
2023-02-17T10:41:04.043Z,100774.00
2023-02-17T10:43:33.491Z,100767.00
2023-02-17T10:46:05.108Z,100771.00
2023-02-17T10:48:38.494Z,100748.00
2023-02-17T10:51:05.594Z,100762.00
2023-02-17T10:53:38.245Z,100756.00
2023-02-17T10:56:21.723Z,100736.00
2023-02-17T10:59:11.943Z,100741.00
2023-02-17T11:01:39.172Z,100735.00
2023-02-17T11:04:13.839Z,100741.00
2023-02-17T11:06:50.880Z,100728.00
2023-02-17T11:09:28.629Z,100715.00
2023-02-17T11:12:01.251Z,100706.00
2023-02-17T11:14:35.556Z,100694.00
2023-02-17T11:17:35.748Z,100700.00
2023-02-17T11:20:30.392Z,100679.00
2023-02-17T11:23:14.167Z,100670.00
2023-02-17T11:25:43.240Z,100669.00
2023-02-17T11:28:25.961Z,100653.00
2023-02-17T11:30:59.544Z,100647.00
2023-02-17T11:33:39.162Z,100641.00
2023-02-17T11:36:08.568Z,100644.00
2023-02-17T11:38:38.329Z,100649.00
2023-02-17T11:41:07.811Z,100640.00
2023-02-17T11:43:36.424Z,100631.00
2023-02-17T11:46:22.808Z,100622.00
2023-02-17T11:49:23.190Z,100611.00
2023-02-17T11:52:11.956Z,100603.00
2023-02-17T11:55:04.777Z,100589.00
2023-02-17T11:57:41.219Z,100580.00
2023-02-17T12:00:27.347Z,100570.00
2023-02-17T12:03:21.449Z,100565.00
2023-02-17T12:05:48.062Z,100548.00
2023-02-17T12:08:27.370Z,100562.00
2023-02-17T12:11:26.344Z,100556.00
2023-02-17T12:14:33.412Z,100570.00
2023-02-17T12:17:13.657Z,100551.00
2023-02-17T12:20:08.382Z,100540.00
2023-02-17T12:23:02.281Z,100535.00
2023-02-17T12:25:39.910Z,100531.00
2023-02-17T12:28:38.743Z,100513.00
2023-02-17T12:31:54.899Z,100517.00
2023-02-17T12:34:44.011Z,100513.00
2023-02-17T12:37:28.368Z,100513.00
2023-02-17T12:40:16.032Z,100509.00
2023-02-17T12:42:55.689Z,100503.00
2023-02-17T12:45:39.893Z,100494.00
2023-02-17T12:48:18.514Z,100503.00
2023-02-17T12:50:56.313Z,100500.00
2023-02-17T12:53:58.827Z,100483.00
2023-02-17T12:56:25.460Z,100491.00
2023-02-17T12:58:56.401Z,100476.00
2023-02-17T13:01:31.341Z,100488.00
2023-02-17T13:04:00.199Z,100484.00
2023-02-17T13:06:38.158Z,100487.00
2023-02-17T13:09:37.321Z,100500.00
2023-02-17T13:12:24.674Z,100486.00
2023-02-17T13:14:58.961Z,100480.00
2023-02-17T13:17:27.067Z,100467.00
2023-02-17T13:20:11.414Z,100470.00
2023-02-17T13:22:40.561Z,100466.00
2023-02-17T13:25:13.650Z,100479.00
2023-02-17T13:27:41.141Z,100463.00
2023-02-17T13:30:24.402Z,100452.00
2023-02-17T13:33:21.660Z,100451.00
2023-02-17T13:35:49.480Z,100455.00
2023-02-17T13:38:28.946Z,100437.00
2023-02-17T13:41:00.659Z,100451.00
2023-02-17T13:43:33.637Z,100449.00
2023-02-17T13:46:05.481Z,100440.00
2023-02-17T13:48:35.219Z,100435.00
2023-02-17T13:51:04.464Z,100431.00
2023-02-17T13:53:38.936Z,100430.00
2023-02-17T13:56:28.702Z,100440.00
2023-02-17T13:59:17.406Z,100440.00
2023-02-17T14:01:46.463Z,100433.00
2023-02-17T14:04:28.285Z,100435.00
2023-02-17T14:06:59.829Z,100447.00
2023-02-17T14:09:33.913Z,100442.00
2023-02-17T14:12:07.870Z,100439.00
2023-02-17T14:14:39.329Z,100452.00
2023-02-17T14:17:09.046Z,100457.00
2023-02-17T14:19:48.599Z,100443.00
2023-02-17T14:22:29.031Z,100462.00
2023-02-17T14:25:01.829Z,100471.00
2023-02-17T14:27:29.002Z,100468.00
2023-02-17T14:29:55.807Z,100454.00
2023-02-17T14:32:34.728Z,100466.00
2023-02-17T14:35:13.689Z,100473.00
2023-02-17T14:37:42.114Z,100470.00
2023-02-17T14:40:25.154Z,100459.00
2023-02-17T14:42:52.049Z,100470.00
2023-02-17T14:45:19.680Z,100472.00
2023-02-17T14:47:47.445Z,100468.00
2023-02-17T14:50:17.336Z,100475.00
2023-02-17T14:52:49.374Z,100463.00
2023-02-17T14:55:38.913Z,100479.00
2023-02-17T14:58:05.819Z,100471.00
2023-02-17T15:00:32.678Z,100458.00
2023-02-17T15:02:59.616Z,100476.00
2023-02-17T15:05:26.432Z,100476.00
2023-02-17T15:07:53.284Z,100466.00
2023-02-17T15:10:28.777Z,100458.00
2023-02-17T15:12:56.841Z,100470.00
2023-02-17T15:15:23.718Z,100483.00
2023-02-17T15:17:50.622Z,100471.00
2023-02-17T15:20:17.771Z,100470.00
2023-02-17T15:22:44.672Z,100471.00
2023-02-17T15:25:14.299Z,100470.00
2023-02-17T15:27:41.237Z,100462.00
2023-02-17T15:30:16.667Z,100461.00
2023-02-17T15:32:44.328Z,100470.00
2023-02-17T15:35:27.457Z,100455.00
2023-02-17T15:37:56.637Z,100464.00
2023-02-17T15:40:27.493Z,100463.00
2023-02-17T15:42:57.374Z,100456.00
2023-02-17T15:45:25.088Z,100462.00
2023-02-17T15:48:03.890Z,100450.00
2023-02-17T15:50:30.896Z,100438.00
2023-02-17T15:52:58.428Z,100448.00
2023-02-17T15:55:28.215Z,100437.00
2023-02-17T15:57:59.119Z,100432.00
2023-02-17T16:00:29.519Z,100447.00
2023-02-17T16:02:56.594Z,100442.00
2023-02-17T16:05:27.203Z,100437.00
2023-02-17T16:07:55.031Z,100440.00
2023-02-17T16:10:27.252Z,100432.00
2023-02-17T16:12:58.029Z,100428.00
2023-02-17T16:15:26.441Z,100422.00
2023-02-17T16:17:53.290Z,100427.00
2023-02-17T16:20:35.415Z,100446.00
2023-02-17T16:23:02.842Z,100448.00
2023-02-17T16:25:30.194Z,100450.00
2023-02-17T16:27:57.606Z,100448.00
2023-02-17T16:30:34.741Z,100467.00
2023-02-17T16:33:02.832Z,100466.00
2023-02-17T16:35:32.524Z,100471.00
2023-02-17T16:38:08.339Z,100458.00
2023-02-17T16:40:47.114Z,100461.00
2023-02-17T16:43:21.518Z,100465.00
2023-02-17T16:46:01.514Z,100439.00
2023-02-17T16:48:33.889Z,100459.00
2023-02-17T16:51:00.840Z,100461.00
2023-02-17T16:53:27.736Z,100468.00
2023-02-17T16:55:55.799Z,100480.00
2023-02-17T16:58:25.807Z,100461.00
2023-02-17T17:00:55.883Z,100462.00
2023-02-17T17:03:22.795Z,100462.00
2023-02-17T17:05:52.334Z,100462.00
2023-02-17T17:08:21.563Z,100450.00
2023-02-17T17:10:49.382Z,100445.00
2023-02-17T17:13:16.353Z,100441.00
2023-02-17T17:15:45.768Z,100448.00
2023-02-17T17:18:21.406Z,100472.00
2023-02-17T17:20:49.082Z,100495.00
2023-02-17T17:23:16.327Z,100461.00
2023-02-17T17:25:46.623Z,100474.00
2023-02-17T17:28:16.841Z,100464.00
2023-02-17T17:30:44.222Z,100468.00
2023-02-17T17:33:11.359Z,100468.00
2023-02-17T17:35:38.336Z,100472.00
2023-02-17T17:38:05.505Z,100465.00
2023-02-17T17:40:48.289Z,100486.00
2023-02-17T17:43:18.679Z,100476.00
2023-02-17T17:45:46.094Z,100477.00
2023-02-17T17:48:15.336Z,100476.00
2023-02-17T17:50:43.173Z,100475.00
2023-02-17T17:53:10.063Z,100486.00
2023-02-17T17:55:38.251Z,100504.00
2023-02-17T17:58:05.175Z,100507.00
2023-02-17T18:00:31.907Z,100517.00
2023-02-17T18:02:58.654Z,100529.00
2023-02-17T18:05:26.043Z,100525.00
2023-02-17T18:07:53.193Z,100534.00
2023-02-17T18:10:20.339Z,100551.00
2023-02-17T18:12:48.076Z,100545.00
2023-02-17T18:15:17.171Z,100546.00
2023-02-17T18:17:47.342Z,100532.00
2023-02-17T18:20:14.990Z,100553.00
2023-02-17T18:22:41.939Z,100562.00
2023-02-17T18:25:09.678Z,100580.00
2023-02-17T18:27:45.348Z,100576.00
2023-02-17T18:30:17.561Z,100586.00
2023-02-17T18:32:44.476Z,100581.00
2023-02-17T18:35:12.754Z,100580.00
2023-02-17T18:37:41.020Z,100621.00
2023-02-17T18:40:13.526Z,100600.00
2023-02-17T18:42:41.900Z,100623.00
2023-02-17T18:45:09.568Z,100625.00
2023-02-17T18:47:36.351Z,100604.00
2023-02-17T18:50:05.255Z,100608.00
2023-02-17T18:52:32.073Z,100631.00
2023-02-17T18:54:59.338Z,100622.00
2023-02-17T18:57:26.716Z,100631.00
2023-02-17T18:59:53.489Z,100629.00
2023-02-17T19:02:21.958Z,100643.00
2023-02-17T19:04:48.765Z,100659.00
2023-02-17T19:07:15.550Z,100643.00
2023-02-17T19:09:42.401Z,100656.00
2023-02-17T19:12:13.307Z,100655.00
2023-02-17T19:14:41.669Z,100652.00
2023-02-17T19:17:09.862Z,100641.00
2023-02-17T19:19:41.659Z,100667.00
2023-02-17T19:22:09.383Z,100665.00
2023-02-17T19:24:38.890Z,100684.00
2023-02-17T19:27:06.835Z,100676.00
2023-02-17T19:29:34.508Z,100690.00
2023-02-17T19:32:03.666Z,100704.00
2023-02-17T19:34:31.337Z,100708.00
2023-02-17T19:36:58.357Z,100714.00
2023-02-17T19:39:25.624Z,100730.00
2023-02-17T19:41:52.417Z,100740.00
2023-02-17T19:44:19.979Z,100709.00
2023-02-17T19:46:46.754Z,100733.00
2023-02-17T19:49:13.603Z,100737.00
2023-02-17T19:51:40.311Z,100736.00
2023-02-17T19:54:07.066Z,100738.00
2023-02-17T19:56:36.253Z,100749.00
2023-02-17T19:59:03.408Z,100746.00
2023-02-17T20:01:32.692Z,100750.00
2023-02-17T20:04:02.008Z,100746.00
2023-02-17T20:06:34.683Z,100753.00
2023-02-17T20:09:06.595Z,100764.00
2023-02-17T20:11:33.733Z,100752.00
2023-02-17T20:14:02.510Z,100762.00
2023-02-17T20:16:30.234Z,100758.00
2023-02-17T20:18:57.109Z,100777.00
2023-02-17T20:21:28.136Z,100760.00
2023-02-17T20:23:55.739Z,100775.00
2023-02-17T20:26:30.774Z,100782.00
2023-02-17T20:28:58.316Z,100786.00
2023-02-17T20:31:26.556Z,100780.00
2023-02-17T20:33:53.855Z,100797.00
2023-02-17T20:36:22.250Z,100789.00
2023-02-17T20:38:50.391Z,100802.00
2023-02-17T20:41:21.105Z,100802.00
2023-02-17T20:43:48.436Z,100789.00
2023-02-17T20:46:24.189Z,100805.00
2023-02-17T20:48:52.005Z,100805.00
2023-02-17T20:51:19.741Z,100804.00
2023-02-17T20:53:46.814Z,100818.00
2023-02-17T20:56:18.075Z,100823.00
2023-02-17T20:58:46.078Z,100822.00
2023-02-17T21:01:13.205Z,100827.00
2023-02-17T21:03:40.276Z,100839.00
2023-02-17T21:06:26.430Z,100832.00
2023-02-17T21:08:58.842Z,100836.00
2023-02-17T21:11:26.685Z,100843.00
2023-02-17T21:13:54.351Z,100854.00
2023-02-17T21:16:28.443Z,100844.00
2023-02-17T21:18:55.262Z,100859.00
2023-02-17T21:21:22.078Z,100827.00
2023-02-17T21:23:48.926Z,100843.00
2023-02-17T21:26:16.501Z,100843.00
2023-02-17T21:28:46.864Z,100844.00
2023-02-17T21:31:15.192Z,100843.00
2023-02-17T21:33:43.507Z,100849.00
2023-02-17T21:36:13.956Z,100850.00
2023-02-17T21:38:40.763Z,100855.00
2023-02-17T21:41:12.140Z,100867.00
2023-02-17T21:43:58.488Z,100878.00
2023-02-17T21:46:26.583Z,100864.00
2023-02-17T21:48:54.732Z,100869.00
2023-02-17T21:51:21.471Z,100885.00
2023-02-17T21:53:48.278Z,100874.00
2023-02-17T21:56:15.534Z,100884.00
2023-02-17T21:58:51.658Z,100875.00
2023-02-17T22:01:19.105Z,100889.00
2023-02-17T22:03:45.929Z,100878.00
2023-02-17T22:06:25.045Z,100878.00
2023-02-17T22:08:52.622Z,100892.00
2023-02-17T22:11:33.310Z,100888.00
2023-02-17T22:14:04.809Z,100904.00
2023-02-17T22:16:35.363Z,100891.00
2023-02-17T22:19:04.027Z,100912.00
2023-02-17T22:21:31.252Z,100906.00
2023-02-17T22:23:59.483Z,100920.00
2023-02-17T22:26:27.506Z,100919.00
2023-02-17T22:28:54.596Z,100938.00
2023-02-17T22:31:25.476Z,100926.00
2023-02-17T22:33:52.259Z,100928.00
2023-02-17T22:36:22.606Z,100935.00
2023-02-17T22:38:50.525Z,100929.00
2023-02-17T22:41:24.191Z,100942.00
2023-02-17T22:43:52.147Z,100944.00
2023-02-17T22:46:22.670Z,100932.00
2023-02-17T22:48:51.937Z,100936.00
2023-02-17T22:51:26.652Z,100943.00
2023-02-17T22:53:53.489Z,100934.00
2023-02-17T22:56:22.463Z,100937.00
2023-02-17T22:58:55.678Z,100943.00
2023-02-17T23:01:23.956Z,100949.00
2023-02-17T23:03:54.471Z,100954.00
2023-02-17T23:06:32.325Z,100973.00
2023-02-17T23:09:00.767Z,100976.00
2023-02-17T23:11:52.739Z,100959.00
2023-02-17T23:14:26.696Z,100961.00
2023-02-17T23:16:55.776Z,100950.00
2023-02-17T23:19:23.410Z,100967.00
2023-02-17T23:21:55.569Z,100980.00
2023-02-17T23:24:25.035Z,100961.00
2023-02-17T23:26:52.945Z,100964.00
2023-02-17T23:29:19.854Z,100962.00
2023-02-17T23:31:46.772Z,100967.00
2023-02-17T23:34:15.715Z,100980.00
2023-02-17T23:36:44.464Z,100984.00
2023-02-17T23:39:12.259Z,100990.00
2023-02-17T23:41:40.083Z,100998.00
2023-02-17T23:44:10.863Z,100993.00
2023-02-17T23:46:38.136Z,100985.00
2023-02-17T23:49:04.907Z,100992.00
2023-02-17T23:51:32.206Z,100998.00
2023-02-17T23:53:58.999Z,100981.00
2023-02-17T23:56:35.235Z,100987.00
2023-02-17T23:59:02.330Z,100991.00
